Flight Track Log - Related Links

Times and Time Zones

All times are in EDT time to prevent confusion due to time zone crossing. See the N516QS flight status page for this flight to view local times or setup timezone preferences in your user account.

Time Position Orientation Groundspeed Altitude Reporting Facility
EDT Latitude Longitude Course Direction KTS MPH feet Rate Location/Type
Tue 07:01:23 PM -33.9220 151.1633 282° West 160 184 2,000  Level Aus ATC (RADAR)
Tue 07:01:48 PM -33.9174 151.1369 282° West 174 200 3,000 2,084 Climbing Aus ATC (RADAR)
Tue 07:02:58 PM -33.8783 151.0480 298° West 281 323 5,300 2,463 Climbing Aus ATC (RADAR)
Tue 07:03:23 PM -33.8586 151.0118 303° West 294 338 6,900 3,600 Climbing Aus ATC (RADAR)
Tue 07:03:48 PM -33.8411 150.9759 300° West 285 328 8,300 3,300 Climbing Aus ATC (RADAR)
Tue 07:04:23 PM -33.8265 150.9181 287° West 293 337 10,200 2,612 Climbing Aus ATC (RADAR)
Tue 07:05:13 PM -33.8099 150.8275 282° West 325 374 12,000 2,329 Climbing Aus ATC (RADAR)
Tue 07:05:48 PM -33.7971 150.7577 283° West 350 403 13,500 2,775 Climbing Aus ATC (RADAR)
Tue 07:06:33 PM -33.7799 150.6654 283° West 361 415 15,700 2,829 Climbing Aus ATC (RADAR)
Tue 07:06:58 PM -33.7704 150.6141 283° West 361 415 16,800 2,589 Climbing Aus ATC (RADAR)
Tue 07:08:08 PM -33.7425 150.4667 283° West 376 433 19,800 2,872 Climbing Aus ATC (RADAR)
Tue 07:08:32 PM -33.7327 150.4145 283° West 370 426 21,300 3,153 Climbing Aus ATC (RADAR)
Tue 07:09:07 PM -33.7192 150.3413 283° West 368 423 22,900 2,657 Climbing Aus ATC (RADAR)
Tue 07:09:42 PM -33.7034 150.2693 285° West 368 423 24,400 2,657 Climbing Aus ATC (RADAR)
Tue 07:10:17 PM -33.6840 150.1996 288° West 364 419 26,000 2,667 Climbing Aus ATC (RADAR)
Tue 07:11:03 PM -33.6601 150.1117 288° West 354 407 28,000 2,229 Climbing Aus ATC (RADAR)
Tue 07:11:27 PM -33.6466 150.0627 288° West 358 412 28,600 1,781 Climbing Aus ATC (RADAR)
Tue 07:12:07 PM -33.6249 149.9835 288° West 363 418 29,900 2,262 Climbing Aus ATC (RADAR)
Tue 07:13:37 PM -33.5780 149.8134 288° West 341 392 33,500 2,600 Climbing Aus ATC (RADAR)
Tue 07:14:07 PM -33.5628 149.7586 288° West 335 386 35,100 3,273 Climbing Aus ATC (RADAR)
Tue 07:14:32 PM -33.5513 149.7170 288° West 310 357 36,500 1,840 Climbing Aus ATC (RADAR)
Tue 07:15:22 PM -33.5282 149.6333 288° West 311 358 37,400 1,059 Climbing Aus ATC (RADAR)
Tue 07:15:57 PM -33.5114 149.5735 289° West 315 362 38,000 1,200 Climbing Aus ATC (RADAR)
Tue 07:16:52 PM -33.4853 149.4792 288° West 315 362 39,200 1,275 Climbing Aus ATC (RADAR)
Tue 07:17:17 PM -33.4734 149.4369 289° West 314 361 39,700 629 Climbing Aus ATC (RADAR)
Tue 07:18:37 PM -33.4345 149.2980 289° West 326 375 40,300 420 Climbing Aus ATC (RADAR)
Tue 07:18:57 PM -33.4247 149.2628 288° West 326 375 40,400 490 Climbing Aus ATC (RADAR)
Tue 07:19:26 PM -33.4101 149.2113 289° West 321 369 40,700 480 Climbing Aus ATC (RADAR)
Tue 07:20:12 PM -33.3885 149.1346 289° West 316 364 41,000 450 Climbing Aus ATC (RADAR)
Tue 07:20:46 PM -33.3713 149.0742 289° West 322 371 41,300 571 Climbing Aus ATC (RADAR)
Tue 07:21:36 PM -33.3469 148.9872 289° West 326 375 41,800 514 Climbing Aus ATC (RADAR)
Tue 07:21:56 PM -33.3368 148.9524 289° West 326 375 41,900 316 Climbing Aus ATC (RADAR)
Tue 07:23:11 PM -33.2987 148.8185 289° West 336 387 42,300 286 Climbing Aus ATC (RADAR)
Tue 07:23:41 PM -33.2831 148.7638 289° West 341 392 42,400 218 Climbing Aus ATC (RADAR)
Tue 07:24:06 PM -33.2699 148.7177 289° West 345 397 42,500 400 Climbing Aus ATC (RADAR)
Tue 07:24:41 PM -33.2514 148.6539 289° West 342 394 42,800 424 Climbing Aus ATC (RADAR)
Tue 07:25:31 PM -33.2253 148.5625 289° West 342 394 43,100 141 Climbing Aus ATC (RADAR)
Tue 07:26:06 PM -33.2067 148.4980 289° West 346 398 43,000 -75 Descending Aus ATC (RADAR)
Tue 07:26:51 PM -33.1824 148.4144 289° West 350 403 43,000  Level Aus ATC (RADAR)
Tue 07:27:16 PM -33.1689 148.3674 289° West 353 406 43,000  Level Aus ATC (RADAR)
Tue 07:28:36 PM -33.1211 148.2181 291° West 358 412 43,000  Level Aus ATC (RADAR)
Tue 07:29:01 PM -33.0979 148.1762 303° West 360 414 43,000  Level Aus ATC (RADAR)
Tue 07:29:31 PM -33.0705 148.1254 303° West 361 415 43,000  Level Aus ATC (RADAR)
Tue 07:30:25 PM -33.0204 148.0326 303° West 359 413 43,000  Level Aus ATC (RADAR)
Tue 07:31:01 PM -32.9880 147.9735 303° West 361 415 43,000  Level Aus ATC (RADAR)
Tue 07:31:45 PM -32.9462 147.8967 303° West 367 422 43,000  Level Aus ATC (RADAR)
Tue 07:32:10 PM -32.9228 147.8538 303° West 367 422 43,000  Level Aus ATC (RADAR)
Tue 07:33:35 PM -32.8443 147.7098 303° West 362 417 43,000  Level Aus ATC (RADAR)
Tue 07:34:00 PM -32.8211 147.6684 304° West 359 413 43,000  Level Aus ATC (RADAR)
Tue 07:34:35 PM -32.7888 147.6088 303° West 363 418 43,000  Level Aus ATC (RADAR)
Tue 07:35:15 PM -32.7515 147.5407 303° West 367 422 43,000  Level Aus ATC (RADAR)
Tue 07:35:50 PM -32.7188 147.4813 303° West 366 421 43,000  Level Aus ATC (RADAR)
Tue 07:36:35 PM -32.6764 147.4049 303° West 367 422 43,000  Level Aus ATC (RADAR)
Tue 07:37:00 PM -32.6529 147.3622 303° West 368 423 43,000  Level Aus ATC (RADAR)
Tue 07:38:20 PM -32.5785 147.2266 303° West 365 420 43,000  Level Aus ATC (RADAR)
Tue 07:38:45 PM -32.5548 147.1847 304° West 365 420 43,000 -120 Level Aus ATC (RADAR)
Tue 07:39:10 PM -32.5314 147.1428 304° West 365 420 42,900 -100 Descending Aus ATC (RADAR)
Tue 07:39:45 PM -32.4990 147.0842 303° West 363 418 42,900  Level Aus ATC (RADAR)
Tue 07:40:35 PM -32.4528 147.0010 303° West 359 413 42,900  Level Aus ATC (RADAR)
Tue 07:41:10 PM -32.4196 146.9434 304° West 361 415 42,900  Level Aus ATC (RADAR)
Tue 07:41:55 PM -32.3788 146.8690 303° West 359 413 42,900  Level Aus ATC (RADAR)
Tue 07:42:19 PM -32.3561 146.8278 303° West 357 411 42,900  Level Aus ATC (RADAR)
Tue 07:43:39 PM -32.2823 146.6971 304° West 357 411 42,900  Level Aus ATC (RADAR)
Tue 07:44:05 PM -32.2590 146.6561 304° West 358 412 42,900  Level Aus ATC (RADAR)
Tue 07:44:39 PM -32.2262 146.5987 304° West 359 413 42,900  Level Aus ATC (RADAR)
Tue 07:45:24 PM -32.1851 146.5248 303° West 358 412 42,900  Level Aus ATC (RADAR)
Tue 07:45:59 PM -32.1525 146.4668 304° West 360 414 42,900  Level Aus ATC (RADAR)
Tue 07:46:44 PM -32.1101 146.3929 304° West 361 415 42,900  Level Aus ATC (RADAR)
Tue 07:47:09 PM -32.0875 146.3520 303° West 356 410 42,900  Level Aus ATC (RADAR)
Tue 07:48:09 PM -32.0327 146.2547 304° West 354 407 42,900  Level Aus ATC (RADAR)
Tue 07:48:34 PM -32.0094 146.2149 305° West 353 406 42,900  Level Aus ATC (RADAR)
Tue 07:48:59 PM -31.9863 146.1744 304° West 355 409 42,900  Level Aus ATC (RADAR)
Tue 07:49:34 PM -31.9540 146.1179 304° West 355 409 42,900  Level Aus ATC (RADAR)
Tue 07:50:19 PM -31.9132 146.0449 303° West 355 409 42,900  Level Aus ATC (RADAR)
Tue 07:50:59 PM -31.8753 145.9813 305° West 356 410 42,900  Level Aus ATC (RADAR)
Tue 07:51:49 PM -31.8284 145.9010 304° West 356 410 42,900  Level Aus ATC (RADAR)
Tue 07:52:04 PM -31.8142 145.8772 305° West 356 410 42,900  Level Aus ATC (RADAR)
Tue 07:52:39 PM -31.7821 145.8191 303° West 359 413 42,900  Level Aus ATC (RADAR)
Tue 07:53:54 PM -31.7097 145.6967 305° West 365 420 42,900  Level Aus ATC (RADAR)
Tue 07:54:19 PM -31.6847 145.6567 306° West 365 420 42,900  Level Aus ATC (RADAR)
Tue 07:54:53 PM -31.6499 145.6013 306° West 363 418 42,900  Level Aus ATC (RADAR)
Tue 07:55:38 PM -31.6083 145.5268 303° West 362 417 42,900  Level Aus ATC (RADAR)
Tue 07:56:18 PM -31.5688 145.4645 307° West 359 413 42,900  Level Aus ATC (RADAR)
Tue 07:57:04 PM -31.5262 145.3904 304° West 363 418 42,900  Level Aus ATC (RADAR)
Tue 07:57:28 PM -31.5044 145.3470 301° West 363 418 42,900  Level Aus ATC (RADAR)
Tue 07:57:43 PM -31.4910 145.3216 302° West 364 419 42,900  Level Aus ATC (RADAR)
Tue 08:00:48 PM -31.3283 145.0436 305° West 43,000 32 Climbing Aus ATC (Calculated)
Tue 08:02:00 PM -31.2544 144.9180 305° West  Level FlightAware Approximate
Tue 08:03:00 PM -31.1928 144.8136 305° West  Level FlightAware Approximate
Tue 08:04:00 PM -31.1310 144.7092 305° West  Level FlightAware Approximate
Tue 08:05:00 PM -31.0692 144.6050 305° West  Level FlightAware Approximate
Tue 08:06:00 PM -31.0073 144.5009 305° West  Level FlightAware Approximate
Tue 08:07:00 PM -30.9453 144.3970 305° West  Level FlightAware Approximate
Tue 08:08:00 PM -30.8832 144.2932 305° West  Level FlightAware Approximate
Tue 08:09:00 PM -30.8211 144.1895 305° West  Level FlightAware Approximate
Tue 08:10:00 PM -30.7589 144.0860 305° West  Level FlightAware Approximate
Tue 08:11:00 PM -30.6966 143.9826 305° West  Level FlightAware Approximate
Tue 08:12:00 PM -30.6342 143.8794 305° West  Level FlightAware Approximate
Tue 08:13:00 PM -30.5717 143.7762 305° West  Level FlightAware Approximate
Tue 08:14:00 PM -30.5091 143.6732 305° West  Level FlightAware Approximate
Tue 08:15:00 PM -30.4465 143.5704 305° West  Level FlightAware Approximate
Tue 08:16:00 PM -30.3838 143.4677 305° West  Level FlightAware Approximate
Tue 08:17:00 PM -30.3210 143.3651 305° West  Level FlightAware Approximate
Tue 08:18:00 PM -30.2581 143.2626 305° West  Level FlightAware Approximate
Tue 08:19:00 PM -30.1951 143.1602 305° West  Level FlightAware Approximate
Tue 08:20:00 PM -30.1321 143.0580 305° West  Level FlightAware Approximate
Tue 08:21:00 PM -30.1951 143.1602 126° Southeast  Level FlightAware Approximate
Tue 08:21:12 PM -30.1694 143.1192 305° West 43,000  Level Aus ATC (Calculated)
Tue 08:23:00 PM -30.1226 143.0429 306° West  Level FlightAware Approximate
Tue 08:24:00 PM -30.0594 142.9409 306° West  Level FlightAware Approximate
Tue 08:24:05 PM -29.9999 142.8454 306° West 43,000  Level Aus ATC (Calculated)
Tue 08:26:00 PM -29.8786 142.6503 306° West  Level FlightAware Approximate
Tue 08:26:01 PM -29.8980 142.6815 306° West 43,000  Level Aus ATC (Calculated)
Tue 08:27:12 PM -29.8073 142.5366 306° West 43,000  Level Aus ATC (Calculated)
Tue 08:28:22 PM -29.7619 142.4643 135° Southeast 43,000  Level Aus ATC (Calculated)
Tue 08:28:22 PM -29.7619 142.4643 126° Southeast 43,000  Level Aus ATC (Calculated)
Tue 08:29:00 PM -29.8238 142.5630 306° West  Level FlightAware Approximate
Tue 08:30:00 PM -29.6578 142.2990 306° West  Level FlightAware Approximate
Tue 08:31:00 PM -29.5940 142.1980 306° West  Level FlightAware Approximate
Tue 08:32:00 PM -29.5301 142.0971 306° West  Level FlightAware Approximate
Tue 08:33:00 PM -29.4662 141.9963 306° West  Level FlightAware Approximate
Tue 08:34:00 PM -29.4021 141.8957 306° West  Level FlightAware Approximate
Tue 08:35:00 PM -29.3380 141.7952 306° West  Level FlightAware Approximate
Tue 08:36:00 PM -29.2738 141.6948 306° West  Level FlightAware Approximate
Tue 08:37:00 PM -29.2096 141.5945 306° West  Level FlightAware Approximate
Tue 08:38:00 PM -29.1452 141.4944 306° West  Level FlightAware Approximate
Tue 08:39:00 PM -29.0809 141.3944 306° West  Level FlightAware Approximate
Tue 08:40:00 PM -29.0164 141.2946 306° West  Level FlightAware Approximate
Tue 08:41:00 PM -28.9518 141.1948 306° West  Level FlightAware Approximate
Tue 08:42:00 PM -28.8872 141.0952 307° West  Level FlightAware Approximate
Tue 08:43:00 PM -28.8225 140.9957 307° West  Level FlightAware Approximate
Tue 08:44:00 PM -28.7577 140.8963 307° West  Level FlightAware Approximate
Tue 08:45:00 PM -28.6929 140.7970 307° West  Level FlightAware Approximate
Tue 08:46:00 PM -28.6279 140.6979 307° West  Level FlightAware Approximate
Tue 08:47:00 PM -28.5630 140.5989 307° West  Level FlightAware Approximate
Tue 08:48:00 PM -28.4979 140.5000 307° West  Level FlightAware Approximate
Tue 08:49:00 PM -28.4327 140.4012 307° West  Level FlightAware Approximate
Tue 08:50:00 PM -28.3675 140.3026 307° West  Level FlightAware Approximate
Tue 08:51:00 PM -28.3022 140.2040 307° West  Level FlightAware Approximate
Tue 08:52:00 PM -28.2369 140.1056 307° West  Level FlightAware Approximate
Tue 08:53:00 PM -28.1715 140.0073 307° West  Level FlightAware Approximate
Tue 08:54:00 PM -28.1060 139.9092 307° West  Level FlightAware Approximate
Tue 08:55:00 PM -28.0404 139.8111 307° West  Level FlightAware Approximate
Tue 08:56:00 PM -27.9748 139.7132 307° West  Level FlightAware Approximate
Tue 08:57:00 PM -27.9091 139.6154 307° West  Level FlightAware Approximate
Tue 08:58:00 PM -27.8433 139.5177 307° West  Level FlightAware Approximate
Tue 08:59:00 PM -27.7775 139.4201 307° West  Level FlightAware Approximate
Tue 09:00:00 PM -27.7116 139.3227 307° West  Level FlightAware Approximate
Tue 09:01:00 PM -27.6456 139.2254 307° West  Level FlightAware Approximate
Tue 09:02:00 PM -27.5796 139.1281 307° West  Level FlightAware Approximate
Tue 09:03:00 PM -27.5135 139.0310 307° West  Level FlightAware Approximate
Tue 09:04:00 PM -27.4610 138.9239 308° West  Level Estimated
Tue 09:05:00 PM -27.3941 138.8276 308° West  Level FlightAware Approximate
Tue 09:06:00 PM -27.3273 138.7313 308° West  Level FlightAware Approximate
Tue 09:07:00 PM -27.2603 138.6351 308° West  Level FlightAware Approximate
Tue 09:08:00 PM -27.1933 138.5391 308° West  Level FlightAware Approximate
Tue 09:09:00 PM -27.1262 138.4432 308° West  Level FlightAware Approximate
Tue 09:10:00 PM -27.0591 138.3474 308° West  Level FlightAware Approximate
Tue 09:11:00 PM -26.9919 138.2517 308° West  Level FlightAware Approximate
Tue 09:11:22 PM -27.0156 138.3066 360° North 43,000  Level Aus ATC (Calculated)
Tue 09:11:31 PM -27.0156 138.3066 308° West 43,000  Level Aus ATC (Calculated)
Tue 09:13:00 PM -26.9166 138.1640 308° West  Level FlightAware Approximate
Tue 09:13:22 PM -26.8886 138.1238 308° West 43,000  Level Aus ATC (Calculated)
Tue 09:14:00 PM -26.8570 138.0783 308° West 43,000  Level Aus ATC (Calculated)
Tue 09:15:00 PM -26.7795 137.9672 308° West  Level FlightAware Approximate
Tue 09:15:27 PM -26.7619 137.9420 308° West 43,000  Level Aus ATC (Calculated)
Tue 09:17:00 PM -26.6581 137.7937 308° West  Level FlightAware Approximate
Tue 09:17:00 PM -26.6666 137.8058 308° West 43,000  Level Aus ATC (Calculated)
Tue 09:18:00 PM -26.5996 137.7103 308° West  Level FlightAware Approximate
Tue 09:19:00 PM -26.5325 137.6149 308° West  Level FlightAware Approximate
Tue 09:20:00 PM -26.4795 137.5091 309° West  Level Estimated
Tue 09:21:00 PM -26.4119 137.4142 308° West  Level FlightAware Approximate
Tue 09:22:00 PM -26.3443 137.3194 309° West  Level FlightAware Approximate
Tue 09:22:17 PM -26.3163 137.3087 308° West 43,000  Level Aus ATC (Calculated)
Tue 09:24:00 PM -26.2006 137.1458 308° West  Level FlightAware Approximate
Tue 09:25:00 PM -26.1331 137.0511 308° West  Level FlightAware Approximate
Tue 09:26:00 PM -26.0656 136.9565 308° West  Level FlightAware Approximate
Tue 09:27:00 PM -25.9980 136.8619 308° West  Level FlightAware Approximate
Tue 09:28:00 PM -25.9303 136.7675 309° West  Level FlightAware Approximate
Tue 09:29:00 PM -25.8626 136.6732 309° West  Level FlightAware Approximate
Tue 09:30:00 PM -25.7948 136.5790 309° West  Level FlightAware Approximate
Tue 09:31:00 PM -25.7270 136.4849 309° West  Level FlightAware Approximate
Tue 09:31:00 PM -25.7699 136.5442 309° West 43,000  Level Aus ATC (Calculated)
Tue 09:32:00 PM -25.7021 136.4502 309° West  Level FlightAware Approximate
Tue 09:32:09 PM -25.7048 136.4540 309° West 43,000  Level Aus ATC (Calculated)
Tue 09:34:00 PM -25.5791 136.2803 309° West  Level FlightAware Approximate
Tue 09:34:36 PM -25.5418 136.2288 180° South 43,000  Level Aus ATC (Calculated)
Tue 09:34:36 PM -25.5418 136.2288 309° West 43,000  Level Aus ATC (Calculated)
Tue 09:35:00 PM -25.5111 136.1865 309° West  Level FlightAware Approximate
Tue 09:36:00 PM -25.4464 136.0977 309° West  Level FlightAware Approximate
Tue 09:37:00 PM -25.3783 136.0041 309° West  Level FlightAware Approximate
Tue 09:38:00 PM -25.3101 135.9107 309° West  Level FlightAware Approximate
Tue 09:39:00 PM -25.2418 135.8174 309° West  Level FlightAware Approximate
Tue 09:40:00 PM -25.1735 135.7242 309° West  Level FlightAware Approximate
Tue 09:41:00 PM -25.1051 135.6310 309° West  Level FlightAware Approximate
Tue 09:42:00 PM -25.0367 135.5380 309° West  Level FlightAware Approximate
Tue 09:43:00 PM -24.9682 135.4451 309° West  Level FlightAware Approximate
Tue 09:44:00 PM -24.8996 135.3523 309° West  Level FlightAware Approximate
Tue 09:45:00 PM -24.8310 135.2596 309° West  Level FlightAware Approximate
Tue 09:46:00 PM -24.7623 135.1670 309° West  Level FlightAware Approximate
Tue 09:47:00 PM -24.6936 135.0745 309° West  Level FlightAware Approximate
Tue 09:48:00 PM -24.6248 134.9821 309° West  Level FlightAware Approximate
Tue 09:49:00 PM -24.5560 134.8898 309° West  Level FlightAware Approximate
Tue 09:50:00 PM -24.4870 134.7977 309° West  Level FlightAware Approximate
Tue 09:51:00 PM -24.4333 134.6940 311° West  Level Estimated
Tue 09:52:00 PM -24.3622 134.6040 311° West  Level FlightAware Approximate
Tue 09:53:00 PM -24.2909 134.5142 311° West  Level FlightAware Approximate
Tue 09:54:00 PM -24.2197 134.4244 311° West  Level FlightAware Approximate
Tue 09:55:00 PM -24.1483 134.3347 311° West  Level FlightAware Approximate
Tue 09:56:00 PM -24.0770 134.2451 311° West  Level FlightAware Approximate
Tue 09:57:00 PM -24.0055 134.1556 311° West  Level FlightAware Approximate
Tue 09:58:00 PM -23.9340 134.0662 311° West  Level FlightAware Approximate
Tue 09:59:00 PM -23.8625 133.9769 311° West  Level FlightAware Approximate
Tue 10:00:00 PM -23.7909 133.8877 311° West  Level FlightAware Approximate
Tue 10:01:00 PM -24.1071 133.4955 312° West  Level Estimated
Tue 10:02:00 PM -24.0305 133.4113 315° West  Level FlightAware Approximate
Tue 10:03:00 PM -23.9539 133.3271 315° West  Level FlightAware Approximate
Tue 10:04:00 PM -23.8772 133.2430 315° West  Level FlightAware Approximate
Tue 10:04:00 PM -23.5877 133.6248 312° West 43,000  Level Aus ATC (Calculated)
Tue 10:04:36 PM -23.5535 133.5827 312° West 43,000  Level Aus ATC (Calculated)
Tue 10:04:53 PM -23.5193 133.5406 312° West 43,000  Level Aus ATC (Calculated)
Tue 10:06:00 PM -23.4389 133.4417 312° West  Level FlightAware Approximate
Tue 10:07:00 PM -23.3668 133.3533 312° West  Level FlightAware Approximate
Tue 10:08:00 PM -23.2946 133.2650 312° West  Level FlightAware Approximate
Tue 10:09:00 PM -23.2224 133.1768 312° West  Level FlightAware Approximate
Tue 10:10:00 PM -23.1502 133.0886 312° West  Level FlightAware Approximate
Tue 10:11:00 PM -23.0779 133.0006 312° West  Level FlightAware Approximate
Tue 10:12:00 PM -23.0056 132.9126 312° West  Level FlightAware Approximate
Tue 10:13:00 PM -22.9332 132.8248 312° West  Level FlightAware Approximate
Tue 10:14:00 PM -22.8607 132.7370 312° West  Level FlightAware Approximate
Tue 10:15:00 PM -22.7882 132.6494 312° West  Level FlightAware Approximate
Tue 10:16:00 PM -22.7157 132.5618 312° West  Level FlightAware Approximate
Tue 10:17:00 PM -22.6431 132.4743 312° West  Level FlightAware Approximate
Tue 10:17:36 PM -22.6258 132.4528 312° West 43,000  Level Aus ATC (Calculated)
Tue 10:18:00 PM -22.5705 132.3870 312° West  Level FlightAware Approximate
Tue 10:19:00 PM -22.5241 132.3305 312° West  Level FlightAware Approximate
Tue 10:19:03 PM -22.5222 132.3282 312° West 43,000  Level Aus ATC (Calculated)
Tue 10:21:00 PM -22.3804 132.1582 312° West  Level FlightAware Approximate
Tue 10:22:00 PM -22.3076 132.0711 312° West  Level FlightAware Approximate
Tue 10:23:00 PM -22.2347 131.9842 312° West  Level FlightAware Approximate
Tue 10:24:00 PM -22.1618 131.8973 312° West  Level FlightAware Approximate
Tue 10:25:00 PM -22.0889 131.8105 312° West  Level FlightAware Approximate
Tue 10:26:00 PM -22.0159 131.7239 312° West  Level FlightAware Approximate
Tue 10:27:00 PM -21.9429 131.6373 312° West  Level FlightAware Approximate
Tue 10:28:00 PM -21.8698 131.5508 312° West  Level FlightAware Approximate
Tue 10:29:00 PM -21.7966 131.4644 312° West  Level FlightAware Approximate
Tue 10:30:00 PM -21.7235 131.3780 312° West  Level FlightAware Approximate
Tue 10:31:00 PM -21.6503 131.2918 312° West  Level FlightAware Approximate
Tue 10:31:09 PM -21.6553 131.2969 312° West 43,000  Level Aus ATC (Calculated)
Tue 10:33:00 PM -21.5227 131.1410 312° West  Level FlightAware Approximate
Tue 10:34:00 PM -21.4510 131.0569 312° West  Level FlightAware Approximate
Tue 10:34:09 PM -21.4309 131.0333 313° West 43,000  Level Aus ATC (Calculated)
Tue 10:34:48 PM -21.3792 130.9729 313° West 43,000  Level Aus ATC (Calculated)
Tue 10:36:00 PM -21.2931 130.8721 313° West  Level FlightAware Approximate
Tue 10:37:00 PM -21.2212 130.7883 313° West  Level FlightAware Approximate
Tue 10:38:00 PM -21.1493 130.7045 313° West  Level FlightAware Approximate
Tue 10:39:00 PM -21.0773 130.6209 313° West  Level FlightAware Approximate
Tue 10:40:00 PM -21.0053 130.5373 313° West  Level FlightAware Approximate
Tue 10:41:00 PM -20.9333 130.4537 313° West  Level FlightAware Approximate
Tue 10:42:00 PM -20.8612 130.3703 313° West  Level FlightAware Approximate
Tue 10:43:00 PM -20.8091 130.2713 314° West  Level Estimated
Tue 10:44:00 PM -20.7366 130.1883 313° West  Level FlightAware Approximate
Tue 10:45:00 PM -20.6641 130.1054 313° West  Level FlightAware Approximate
Tue 10:46:00 PM -20.5916 130.0226 313° West  Level FlightAware Approximate
Tue 10:47:00 PM -20.5189 129.9399 313° West  Level FlightAware Approximate
Tue 10:48:00 PM -20.4463 129.8572 313° West  Level FlightAware Approximate
Tue 10:49:00 PM -20.3736 129.7746 313° West  Level FlightAware Approximate
Tue 10:50:00 PM -20.3009 129.6921 313° West  Level FlightAware Approximate
Tue 10:51:00 PM -20.2282 129.6097 313° West  Level FlightAware Approximate
Tue 10:52:00 PM -20.1554 129.5273 313° West  Level FlightAware Approximate
Tue 10:53:00 PM -20.0826 129.4451 313° West  Level FlightAware Approximate
Tue 10:54:00 PM -20.0097 129.3629 313° West  Level FlightAware Approximate
Tue 10:55:00 PM -19.9368 129.2807 313° West  Level FlightAware Approximate
Tue 10:56:00 PM -19.8639 129.1987 313° West  Level FlightAware Approximate
Tue 10:57:00 PM -19.7909 129.1167 313° West  Level FlightAware Approximate
Tue 10:58:00 PM -19.7179 129.0348 313° West  Level FlightAware Approximate
Tue 10:59:00 PM -19.6448 128.9530 313° West  Level FlightAware Approximate
Tue 11:00:00 PM -19.5717 128.8712 313° West  Level FlightAware Approximate
Tue 11:01:00 PM -19.4986 128.7896 314° West  Level FlightAware Approximate
Tue 11:02:00 PM -19.4254 128.7080 314° West  Level FlightAware Approximate
Tue 11:03:00 PM -19.3522 128.6264 314° West  Level FlightAware Approximate
Tue 11:04:00 PM -19.2790 128.5450 314° West  Level FlightAware Approximate
Tue 11:05:00 PM -19.2057 128.4636 314° West  Level FlightAware Approximate
Tue 11:06:00 PM -19.1324 128.3823 314° West  Level FlightAware Approximate
Tue 11:07:00 PM -19.0813 128.2838 314° West  Level Estimated
Tue 11:08:00 PM -19.0075 128.2030 314° West  Level FlightAware Approximate
Tue 11:09:00 PM -18.9337 128.1223 314° West  Level FlightAware Approximate
Tue 11:10:00 PM -18.8599 128.0417 314° West  Level FlightAware Approximate
Tue 11:11:00 PM -18.7860 127.9611 314° West  Level FlightAware Approximate
Tue 11:12:00 PM -18.7121 127.8806 314° West  Level FlightAware Approximate
Tue 11:13:00 PM -18.6382 127.8002 314° West  Level FlightAware Approximate
Tue 11:14:00 PM -18.5642 127.7198 314° West  Level FlightAware Approximate
Tue 11:15:00 PM -18.4902 127.6395 314° West  Level FlightAware Approximate
Tue 11:15:16 PM -18.2426 127.4191 298° West 43,000  Level Aus ATC (Calculated)
Tue 11:17:00 PM -18.1553 127.2486 315° West  Level Estimated
Tue 11:17:23 PM -18.0748 127.2350 314° West 43,000  Level Aus ATC (Calculated)
Tue 11:19:00 PM -17.9559 127.1048 314° West  Level FlightAware Approximate
Tue 11:20:00 PM -17.8823 127.0244 314° West  Level FlightAware Approximate
Tue 11:21:00 PM -17.8087 126.9441 314° West  Level FlightAware Approximate
Tue 11:22:00 PM -17.7350 126.8638 314° West  Level FlightAware Approximate
Tue 11:23:00 PM -17.6613 126.7835 314° West  Level FlightAware Approximate
Tue 11:24:00 PM -17.5876 126.7034 314° West  Level FlightAware Approximate
Tue 11:25:00 PM -17.5138 126.6233 314° West  Level FlightAware Approximate
Tue 11:26:00 PM -17.4401 126.5433 314° West  Level FlightAware Approximate
Tue 11:27:00 PM -17.3662 126.4633 314° West  Level FlightAware Approximate
Tue 11:28:00 PM -17.2924 126.3834 314° West  Level FlightAware Approximate
Tue 11:29:00 PM -17.2185 126.3036 314° West  Level FlightAware Approximate
Tue 11:30:00 PM -17.1446 126.2238 314° West  Level FlightAware Approximate
Tue 11:31:00 PM -17.0706 126.1441 314° West  Level FlightAware Approximate
Tue 11:32:00 PM -16.9966 126.0645 314° West  Level FlightAware Approximate
Tue 11:33:00 PM -16.9226 125.9849 314° West  Level FlightAware Approximate
Tue 11:34:00 PM -16.8486 125.9054 314° West  Level FlightAware Approximate
Tue 11:35:00 PM -16.7745 125.8259 314° West  Level FlightAware Approximate
Tue 11:36:00 PM -16.7004 125.7465 314° West  Level FlightAware Approximate
Tue 11:37:00 PM -16.6262 125.6672 314° West  Level FlightAware Approximate
Tue 11:38:00 PM -16.5521 125.5879 314° West  Level FlightAware Approximate
Tue 11:38:00 PM -16.3561 125.3786 314° West 43,000  Level Aus ATC (Calculated)
Tue 11:39:00 PM -16.2818 125.2996 314° West  Level FlightAware Approximate
Tue 11:39:04 PM -16.2679 125.2847 314° West 43,000  Level Aus ATC (Calculated)
Tue 11:40:40 PM -16.1354 125.1440 314° West 43,000  Level Aus ATC (Calculated)
Tue 11:41:00 PM -16.0912 125.0971 314° West 43,000  Level Aus ATC (Calculated)
Tue 11:41:51 PM -16.0029 125.0035 360° North 43,000  Level Aus ATC (Calculated)
Tue 11:42:00 PM -16.0029 125.0035 314° West 43,000  Level Aus ATC (Calculated)
Tue 11:43:00 PM -15.9173 124.9129 314° West  Level FlightAware Approximate
Tue 11:44:00 PM -15.8540 124.8460 314° West  Level FlightAware Approximate
Tue 11:45:00 PM -15.7795 124.7674 315° West  Level FlightAware Approximate
Tue 11:46:00 PM -15.7050 124.6888 315° West  Level FlightAware Approximate
Tue 11:46:00 PM -15.6796 124.6619 315° West 43,000  Level Aus ATC (Calculated)
Tue 11:47:00 PM -15.6051 124.5834 315° West  Level FlightAware Approximate
Tue 11:48:00 PM -15.5305 124.5050 315° West  Level FlightAware Approximate
Tue 11:49:00 PM -15.4559 124.4266 315° West  Level FlightAware Approximate
Tue 11:49:08 PM -15.3898 124.3572 315° West 43,000  Level Aus ATC (Calculated)
Tue 11:50:07 PM -15.2738 124.2356 315° West 43,000  Level Aus ATC (Calculated)
Tue 11:51:02 PM -15.2158 124.1748 315° West 43,000  Level Aus ATC (Calculated)
Tue 11:53:00 PM -15.0688 124.0211 315° West  Level FlightAware Approximate
Tue 11:54:00 PM -14.9941 123.9430 315° West  Level FlightAware Approximate
Tue 11:55:00 PM -14.9193 123.8651 315° West  Level FlightAware Approximate
Tue 11:56:00 PM -14.8445 123.7871 315° West  Level FlightAware Approximate
Tue 11:57:00 PM -14.7696 123.7092 315° West  Level FlightAware Approximate
Tue 11:58:00 PM -14.6947 123.6314 315° West  Level FlightAware Approximate
Tue 11:59:00 PM -14.6199 123.5536 315° West  Level FlightAware Approximate
Wed 12:00:00 AM -14.5449 123.4759 315° West  Level FlightAware Approximate
Wed 12:00:33 AM -14.4015 123.3273 135° Southeast 43,000  Level Aus ATC (Calculated)
Wed 12:01:00 AM -14.4700 123.3982 315° West  Level FlightAware Approximate
Wed 12:02:00 AM -14.2928 123.2148 315° West  Level FlightAware Approximate
Wed 12:03:00 AM -14.2177 123.1373 315° West  Level FlightAware Approximate
Wed 12:04:00 AM -14.1427 123.0599 315° West  Level FlightAware Approximate
Wed 12:05:00 AM -14.0676 122.9825 315° West  Level FlightAware Approximate
Wed 12:06:00 AM -13.9925 122.9051 315° West  Level FlightAware Approximate
Wed 12:07:00 AM -13.9174 122.8278 315° West  Level FlightAware Approximate
Wed 12:08:00 AM -13.8422 122.7506 315° West  Level FlightAware Approximate
Wed 12:09:00 AM -13.7671 122.6734 315° West  Level FlightAware Approximate
Wed 12:10:00 AM -13.7235 122.5737 299° West  Level Estimated
Wed 12:11:00 AM -13.6623 122.4843 305° West  Level FlightAware Approximate
Wed 12:12:00 AM -13.6012 122.3950 305° West  Level FlightAware Approximate
Wed 12:12:00 AM -13.4087 122.3063 304° West 43,000  Level Aus ATC (Calculated)
Wed 12:13:00 AM -13.3490 122.2160 304° West  Level FlightAware Approximate
Wed 12:14:00 AM -13.2894 122.1258 304° West  Level FlightAware Approximate
Wed 12:15:00 AM -13.2296 122.0356 304° West  Level FlightAware Approximate
Wed 12:16:00 AM -13.1699 121.9455 304° West  Level FlightAware Approximate
Wed 12:17:00 AM -13.1101 121.8553 304° West  Level FlightAware Approximate
Wed 12:18:00 AM -13.0503 121.7653 304° West  Level FlightAware Approximate
Wed 12:19:00 AM -12.9905 121.6753 304° West  Level FlightAware Approximate
Wed 12:20:00 AM -12.9306 121.5853 304° West  Level FlightAware Approximate
Wed 12:21:00 AM -12.8708 121.4954 304° West  Level FlightAware Approximate
Wed 12:22:00 AM -12.8108 121.4055 304° West  Level FlightAware Approximate
Wed 12:22:00 AM -12.5292 121.4124 302° West 43,000  Level Aus ATC (Calculated)
Wed 12:23:00 AM -12.4737 121.3197 302° West  Level FlightAware Approximate
Wed 12:24:00 AM -12.4181 121.2271 302° West  Level FlightAware Approximate
Wed 12:24:00 AM -12.3529 121.2344 301° West 43,000  Level Aus ATC (Calculated)
Wed 12:25:00 AM -12.2985 121.1410 301° West  Level FlightAware Approximate
Wed 12:26:00 AM -12.2442 121.0477 301° West  Level FlightAware Approximate
Wed 12:26:21 AM -12.1177 120.9974 112° Southeast 43,000  Level Aus ATC (Calculated)
Wed 12:26:21 AM -12.1177 120.9974 300° West 43,000  Level Aus ATC (Calculated)
Wed 12:28:00 AM -12.0309 120.8418 300° West  Level FlightAware Approximate
Wed 12:29:00 AM -11.9782 120.7475 300° West  Level FlightAware Approximate
Wed 12:30:00 AM -11.9256 120.6533 300° West  Level FlightAware Approximate
Wed 12:31:00 AM -11.8729 120.5591 300° West  Level FlightAware Approximate
Wed 12:32:00 AM -11.8201 120.4650 300° West  Level FlightAware Approximate
Wed 12:33:00 AM -11.7674 120.3708 300° West  Level FlightAware Approximate
Wed 12:34:00 AM -11.7146 120.2768 300° West  Level FlightAware Approximate
Wed 12:35:00 AM -11.6617 120.1827 300° West  Level FlightAware Approximate
Wed 12:36:00 AM -11.6089 120.0887 300° West  Level FlightAware Approximate
Wed 12:37:00 AM -11.5560 119.9948 300° West  Level FlightAware Approximate
Wed 12:38:00 AM -11.5031 119.9008 300° West  Level FlightAware Approximate
Wed 12:39:00 AM -11.4501 119.8069 300° West  Level FlightAware Approximate
Wed 12:40:00 AM -11.3971 119.7130 300° West  Level FlightAware Approximate
Wed 12:41:00 AM -11.3441 119.6192 300° West  Level FlightAware Approximate
Wed 12:42:00 AM -11.2911 119.5254 300° West  Level FlightAware Approximate
Wed 12:43:00 AM -11.2380 119.4316 300° West  Level FlightAware Approximate
Wed 12:44:00 AM -11.1849 119.3379 300° West  Level FlightAware Approximate
Wed 12:45:00 AM -11.1318 119.2442 300° West  Level FlightAware Approximate
Wed 12:46:00 AM -11.0942 119.1430 301° West  Level Estimated
Wed 12:47:00 AM -11.0402 119.0499 301° West  Level FlightAware Approximate
Wed 12:48:00 AM -10.9862 118.9567 301° West  Level FlightAware Approximate
Wed 12:49:00 AM -10.9322 118.8637 301° West  Level FlightAware Approximate
Wed 12:50:00 AM -10.8781 118.7706 301° West  Level FlightAware Approximate
Wed 12:51:00 AM -10.8410 118.6693 301° West  Level Estimated
Wed 12:52:00 AM -10.7865 118.5766 301° West  Level FlightAware Approximate
Wed 12:53:00 AM -10.7319 118.4838 301° West  Level FlightAware Approximate
Wed 12:54:00 AM -10.6774 118.3911 301° West  Level FlightAware Approximate
Wed 12:55:00 AM -10.6228 118.2985 301° West  Level FlightAware Approximate
Wed 12:56:00 AM -10.5682 118.2058 301° West  Level FlightAware Approximate
Wed 12:57:00 AM -10.5136 118.1132 301° West  Level FlightAware Approximate
Wed 12:58:00 AM -10.4590 118.0207 301° West  Level FlightAware Approximate
Wed 12:59:00 AM -10.4043 117.9281 301° West  Level FlightAware Approximate
Wed 01:00:00 AM -10.3496 117.8356 301° West  Level FlightAware Approximate
Wed 01:01:00 AM -10.2949 117.7431 301° West  Level FlightAware Approximate
Wed 01:02:00 AM -10.2401 117.6507 301° West  Level FlightAware Approximate
Wed 01:03:00 AM -10.1853 117.5583 301° West  Level FlightAware Approximate
Wed 01:04:00 AM -10.1305 117.4659 301° West  Level FlightAware Approximate
Wed 01:05:00 AM -10.0757 117.3736 301° West  Level FlightAware Approximate
Wed 01:06:00 AM -10.0208 117.2812 301° West  Level FlightAware Approximate
Wed 01:07:00 AM -9.9660 117.1890 301° West  Level FlightAware Approximate
Wed 01:08:00 AM -9.9110 117.0967 301° West  Level FlightAware Approximate
Wed 01:09:00 AM -9.8764 116.9949 300° West  Level Estimated
Wed 01:10:00 AM -9.8217 116.9025 301° West  Level FlightAware Approximate
Wed 01:11:00 AM -9.7671 116.8101 301° West  Level FlightAware Approximate
Wed 01:12:00 AM -9.7124 116.7178 301° West  Level FlightAware Approximate
Wed 01:13:00 AM -9.6577 116.6255 301° West  Level FlightAware Approximate
Wed 01:14:00 AM -9.6029 116.5332 301° West  Level FlightAware Approximate
Wed 01:15:00 AM -9.5482 116.4410 301° West  Level FlightAware Approximate
Wed 01:16:00 AM -9.4934 116.3487 301° West  Level FlightAware Approximate
Wed 01:17:00 AM -9.4386 116.2566 301° West  Level FlightAware Approximate
Wed 01:18:00 AM -9.3837 116.1644 301° West  Level FlightAware Approximate
Wed 01:19:00 AM -9.3289 116.0723 301° West  Level FlightAware Approximate
Wed 01:20:00 AM -9.2740 115.9802 301° West  Level FlightAware Approximate
Wed 01:21:00 AM -9.2191 115.8881 301° West  Level FlightAware Approximate
Wed 01:22:00 AM -9.1642 115.7961 301° West  Level FlightAware Approximate
Wed 01:23:00 AM -9.1321 115.6935 300° West  Level Estimated
Wed 01:24:00 AM -9.0771 115.6016 301° West  Level FlightAware Approximate
Wed 01:25:00 AM -9.0220 115.5097 301° West  Level FlightAware Approximate
Wed 01:26:00 AM -8.9669 115.4178 301° West  Level FlightAware Approximate
Wed 01:27:00 AM -8.9118 115.3260 301° West  Level FlightAware Approximate
Wed 01:28:00 AM -8.8566 115.2341 301° West  Level FlightAware Approximate
Wed 01:29:00 AM -8.8015 115.1423 301° West  Level FlightAware Approximate
Wed 01:30:00 AM -8.7463 115.0506 301° West  Level FlightAware Approximate
Wed 01:31:00 AM -8.6911 114.9588 301° West  Level FlightAware Approximate
Wed 01:32:00 AM -8.6358 114.8671 301° West  Level FlightAware Approximate
Wed 01:33:00 AM -8.5806 114.7754 301° West  Level FlightAware Approximate
Wed 01:34:00 AM -8.5253 114.6837 301° West  Level FlightAware Approximate
Wed 01:35:00 AM -8.4964 114.5804 303° West  Level Estimated
Wed 01:36:00 AM -8.4396 114.4898 302° West  Level FlightAware Approximate
Wed 01:37:00 AM -8.3827 114.3992 302° West  Level FlightAware Approximate
Wed 01:38:00 AM -8.3258 114.3086 302° West  Level FlightAware Approximate
Wed 01:39:00 AM -8.2689 114.2180 302° West  Level FlightAware Approximate
Wed 01:40:00 AM -8.2119 114.1274 302° West  Level FlightAware Approximate
Wed 01:41:00 AM -8.1550 114.0369 302° West  Level FlightAware Approximate
Wed 01:42:00 AM -8.0980 113.9464 302° West  Level FlightAware Approximate
Wed 01:43:00 AM -8.0410 113.8560 302° West  Level FlightAware Approximate
Wed 01:44:00 AM -7.9840 113.7655 302° West  Level FlightAware Approximate
Wed 01:45:00 AM -7.9269 113.6751 302° West  Level FlightAware Approximate
Wed 01:46:00 AM -7.8699 113.5847 303° West  Level FlightAware Approximate
Wed 01:47:00 AM -7.8128 113.4943 303° West  Level FlightAware Approximate
Wed 01:48:00 AM -7.7892 113.3899 302° West  Level Estimated
Wed 01:49:00 AM -7.7310 113.3002 303° West  Level FlightAware Approximate
Wed 01:50:00 AM -7.6729 113.2105 303° West  Level FlightAware Approximate
Wed 01:51:00 AM -7.6148 113.1209 303° West  Level FlightAware Approximate
Wed 01:52:00 AM -7.5566 113.0313 303° West  Level FlightAware Approximate
Wed 01:53:00 AM -7.4984 112.9417 303° West  Level FlightAware Approximate
Wed 01:54:00 AM -7.4777 112.8367 270° West  Level Estimated
Wed 01:55:00 AM -7.4317 112.7402 296° West  Level FlightAware Approximate
Wed 01:56:00 AM -7.3857 112.6437 296° West  Level FlightAware Approximate
Wed 01:57:00 AM -7.3396 112.5473 296° West  Level FlightAware Approximate
Wed 01:58:00 AM -7.2935 112.4509 296° West  Level FlightAware Approximate
Wed 01:59:00 AM -7.2474 112.3544 296° West  Level FlightAware Approximate
Wed 02:00:00 AM -7.2291 112.2490 270° West  Level Estimated
Wed 02:01:00 AM -7.1970 112.1470 288° West  Level FlightAware Approximate
Wed 02:02:00 AM -7.1650 112.0450 288° West  Level FlightAware Approximate
Wed 02:03:00 AM -7.1329 111.9430 288° West  Level FlightAware Approximate
Wed 02:04:00 AM -7.1007 111.8410 288° West  Level FlightAware Approximate
Wed 02:05:00 AM -7.0686 111.7390 288° West  Level FlightAware Approximate
Wed 02:06:00 AM -7.0364 111.6371 288° West  Level FlightAware Approximate
Wed 02:07:00 AM -7.0043 111.5351 288° West  Level FlightAware Approximate
Wed 02:08:00 AM -6.9721 111.4332 288° West  Level FlightAware Approximate
Wed 02:09:00 AM -6.9398 111.3313 288° West  Level FlightAware Approximate
Wed 02:10:00 AM -6.9243 111.2255 270° West  Level Estimated
Wed 02:11:00 AM -6.9021 111.1209 282° West  Level FlightAware Approximate
Wed 02:12:00 AM -6.8800 111.0163 282° West  Level FlightAware Approximate
Wed 02:13:00 AM -6.8578 110.9117 282° West  Level FlightAware Approximate
Wed 02:14:00 AM -6.8355 110.8072 282° West  Level FlightAware Approximate
Wed 02:15:00 AM -6.8133 110.7026 282° West  Level FlightAware Approximate
Wed 02:16:00 AM -6.7910 110.5981 282° West  Level FlightAware Approximate
Wed 02:17:00 AM -6.7688 110.4935 282° West  Level FlightAware Approximate
Wed 02:18:00 AM -6.7465 110.3890 282° West  Level FlightAware Approximate
Wed 02:19:00 AM -6.7241 110.2845 282° West  Level FlightAware Approximate
Wed 02:20:00 AM -6.7102 110.1785 270° West  Level Estimated
Wed 02:21:00 AM -6.6962 110.0725 270° West  Level Estimated
Wed 02:22:00 AM -6.6823 109.9666 270° West  Level Estimated
Wed 02:23:00 AM -6.6683 109.8606 270° West  Level Estimated
Wed 02:24:00 AM -6.6543 109.7546 270° West  Level Estimated
Wed 02:25:00 AM -6.6402 109.6487 270° West  Level Estimated
Wed 02:26:00 AM -6.6261 109.5427 270° West  Level Estimated
Wed 02:27:00 AM -6.6121 109.4368 270° West  Level Estimated
Wed 02:28:00 AM -6.5979 109.3309 270° West  Level Estimated
Wed 02:29:00 AM -6.5838 109.2249 270° West  Level Estimated
Wed 02:30:00 AM -6.5697 109.1190 270° West  Level Estimated
Wed 02:31:00 AM -6.5555 109.0131 270° West  Level Estimated
Wed 02:32:00 AM -6.5413 108.9072 270° West  Level Estimated
Wed 02:33:00 AM -6.5271 108.8013 270° West  Level Estimated
Wed 02:34:00 AM -6.5128 108.6954 270° West  Level Estimated
Wed 02:35:00 AM -6.4985 108.5895 270° West  Level Estimated
Wed 02:36:00 AM -6.4842 108.4836 270° West  Level Estimated
Wed 02:37:00 AM -6.4699 108.3777 270° West  Level Estimated
Wed 02:38:00 AM -6.4556 108.2719 270° West  Level Estimated
Wed 02:39:00 AM -6.4412 108.1660 270° West  Level Estimated
Wed 02:40:00 AM -6.4269 108.0602 270° West  Level Estimated
Wed 02:41:00 AM -6.4125 107.9543 270° West  Level Estimated
Wed 02:42:00 AM -6.3980 107.8484 270° West  Level Estimated
Wed 02:43:00 AM -6.3836 107.7426 270° West  Level Estimated
Wed 02:44:00 AM -6.3691 107.6368 270° West  Level Estimated
Wed 02:45:00 AM -6.3547 107.5309 270° West  Level Estimated
Wed 02:46:00 AM -6.3401 107.4251 270° West  Level Estimated
Wed 02:47:00 AM -6.3256 107.3193 270° West  Level Estimated
Wed 02:48:00 AM -6.3111 107.2135 270° West  Level Estimated
Wed 02:49:00 AM -6.2965 107.1077 270° West  Level Estimated
Wed 02:50:00 AM -6.2819 107.0019 270° West  Level Estimated
Wed 02:51:00 AM -6.2673 106.8961 270° West  Level Estimated
Wed 02:52:00 AM -6.2666 106.8911 270° West  Level Estimated
Wed 02:53:00 AM -6.2666 106.8911 270° West  Level Estimated
Wed 02:54:00 AM -6.2666 106.8911 270° West  Level Estimated

Login

Don't have an account? Register now (free) for customized features, flight alerts, and more!